Altoona, Pennsylvania
Current Conditions -  °F | °C
As of 1:53 PM on Saturday 25 Oct 2014 (Local Time) from KAOO Reporting Station
Overcast Overcast  
Wind Chill: 63°   Ceiling: 4700
Heat Index: 63°   Visibility: 10mi
Dew Point: 46°   Wind: 18mph
Humidity: 54%   Direction: 280°W
Pressure: 29.82"   Gusts: 26mph
Location:  40.51°N, 78.4°W
Report Text: KAOO 251753Z AUTO 28016G23KT 10SM BKN047 BKN055 OVC070 17/08 A2982 RMK AO2 SLP097 T01720078 10189 20072 58028
Loading
Personal Weather Stations






























Interactive Weather Map
Tropical Storm Tracking
New forecast layout! Learn more

10-Day Weather Forecast

Advertisements
Track Severe Weather on mobile